Bei Facebook empfehlenBei Twitter postenGoogle plusPinterest

Das Wetter im Erzgebirge am 21.03.2016

Wetter und Klima am 21.03.2016 Holzhau im Erzgebirge (630m ü.NN)
Letzte gemessene Temperatur und Uhrzeit der Messung23:45:00 Uhr0.60 °C
Temperatur (Maximum / Höchstwert) und Uhrzeit der Messung14:30:00 Uhr5.60 °C
Temperatur (Minimum / Tiefstwert) und Uhrzeit der Messung23:45:000.60 °C
Errechneter Absolutwert der Temperaturschwankungen zwischen Tmin und Tmax des Tages5.00 K
Errechnete Tagesmitteltemperatur2.24583 °C
Gesamt - Niederschlag des Tages (in flüssiger Form)3.62 Liter / m²
Luftdruck (Maximum / Höchstwert) und Zeitpunkt der Messung09:15:00 Uhr1011.00 hPa
Luftdruck (Minimum / Tiefstwert) und Zeitpunkt der Messung23:45:00 Uhr1007.40 hPa
Errechneter Absolutwert der Luftdruckschwankungen des Tages3.60 hPa
Höchste gemessene Windgeschwindigkeit und Uhrzeit der Messung22:00:00 Uhr183.60 km/h
Errechnete Windhäufigkeit in Relation zu den Messwerten des Tages27.08333 %
Niedrigste Windkühle (Windchill) und Zeitpunkt der Messung22:00:00 Uhr-10.90 °C
Taupunkt (Maximum / Höchstwert) und Uhrzeit der Messung14:30:00 Uhr3.90 °C
Taupunkt (Minimum / Tiefstwert) und Uhrzeit der Messung23:45:00-0.40 °C
Anzahl der automatisch eingelesenen Messwerte 96

Detaillierte Wetter- und Klima- Messwerte für den 21.03.2016 in Holzhau im Erzgebirge (630m ü.NN)
ZeitTemperaturLuftdruckRel. LuftfeuchteWindWindrichtungWindchillTaupunktNiederschlag l/m²
23:45:000.60 °C1007.40 hPa93.00 %-0.40 °C3.62
23:30:000.80 °C1007.60 hPa93.00 %-0.20 °C3.62
23:15:001.20 °C1007.50 hPa93.00 %0.20 °C3.62
23:00:001.10 °C1007.60 hPa93.00 %0.10 °C3.11
22:45:000.90 °C1007.80 hPa93.00 %-0.10 °C3.11
22:30:000.90 °C1007.90 hPa93.00 %-0.10 °C3.11
22:15:001.30 °C1007.90 hPa93.00 %0.30 °C3.11
22:00:001.40 °C1007.90 hPa93.00 %183.60 km/hNNW-10.90 °C0.40 °C2.59
21:45:001.50 °C1008.10 hPa93.00 %0.50 °C2.59
21:30:001.50 °C1008.30 hPa93.00 %3.96 km/hWNW1.50 °C0.50 °C2.59
21:15:001.50 °C1008.20 hPa92.00 %183.60 km/hW-10.80 °C0.30 °C2.59
21:00:001.60 °C1008.40 hPa92.00 %0.40 °C2.59
20:45:001.70 °C1008.50 hPa92.00 %0.50 °C2.59
20:30:001.60 °C1008.10 hPa92.00 %0.40 °C2.07
20:15:001.50 °C1008.10 hPa92.00 %0.30 °C2.07
20:00:001.50 °C1008.30 hPa91.00 %0.20 °C2.07
19:45:001.50 °C1008.40 hPa91.00 %0.20 °C2.07
19:30:001.80 °C1008.40 hPa91.00 %0.50 °C2.07
19:15:002.30 °C1008.50 hPa90.00 %0.80 °C2.07
19:00:002.20 °C1008.10 hPa90.00 %0.70 °C2.07
18:45:002.10 °C1008.00 hPa90.00 %7.92 km/hWNW-0.20 °C0.60 °C2.07
18:30:002.10 °C1008.00 hPa89.00 %0.50 °C2.07
18:15:002.10 °C1008.00 hPa89.00 %3.60 km/hNW2.10 °C0.50 °C2.07
18:00:002.20 °C1008.30 hPa88.00 %0.40 °C2.07
17:45:002.20 °C1008.40 hPa87.00 %0.30 °C2.07
17:30:002.50 °C1008.30 hPa86.00 %0.40 °C2.07
17:15:003.10 °C1008.30 hPa85.00 %0.80 °C1.55
17:00:003.60 °C1008.10 hPa85.00 %1.30 °C1.55
16:45:003.90 °C1008.50 hPa84.00 %1.40 °C1.55
16:30:004.20 °C1008.50 hPa84.00 %1.70 °C1.55
16:15:004.50 °C1008.60 hPa84.00 %2.00 °C1.55
16:00:004.60 °C1008.60 hPa85.00 %13.68 km/hW1.50 °C2.30 °C1.55
15:45:004.40 °C1008.60 hPa86.00 %6.48 km/hNNW2.90 °C2.30 °C1.55
15:30:004.10 °C1008.70 hPa86.00 %2.00 °C1.55
15:15:004.40 °C1008.80 hPa86.00 %2.30 °C1.55
15:00:004.20 °C1008.80 hPa86.00 %2.10 °C1.55
14:45:004.80 °C1008.80 hPa87.00 %12.96 km/hNW1.80 °C2.80 °C1.55
14:30:005.60 °C1008.90 hPa89.00 %3.90 °C1.55
14:15:005.20 °C1008.70 hPa91.00 %3.90 °C1.55
14:00:004.40 °C1008.90 hPa91.00 %3.10 °C1.55
13:45:004.60 °C1009.10 hPa92.00 %7.20 km/hWSW2.90 °C3.40 °C1.55
13:30:004.40 °C1009.30 hPa92.00 %183.60 km/hWNW-6.30 °C3.20 °C1.55
13:15:004.30 °C1009.40 hPa93.00 %4.32 km/hWNW4.30 °C3.30 °C1.55
13:00:004.20 °C1009.50 hPa93.00 %4.68 km/hNW4.20 °C3.20 °C1.55
12:45:004.10 °C1009.90 hPa93.00 %5.04 km/hNNW3.00 °C3.10 °C1.55
12:30:004.40 °C1009.80 hPa94.00 %3.50 °C1.55
12:15:004.10 °C1010.10 hPa94.00 %3.20 °C1.55
12:00:003.80 °C1010.10 hPa94.00 %2.90 °C1.55
11:45:003.60 °C1010.30 hPa94.00 %3.96 km/hSW3.60 °C2.70 °C1.55
11:30:003.20 °C1010.40 hPa94.00 %2.30 °C1.55
11:15:003.40 °C1010.40 hPa94.00 %2.50 °C1.55
11:00:002.90 °C1010.70 hPa94.00 %7.56 km/hWNW0.80 °C2.00 °C1.55
10:45:002.90 °C1010.70 hPa94.00 %2.00 °C1.55
10:30:002.40 °C1010.70 hPa94.00 %7.56 km/hWNW0.20 °C1.50 °C1.55
10:15:002.10 °C1010.70 hPa94.00 %1.20 °C1.03
10:00:001.60 °C1010.70 hPa94.00 %5.40 km/hWNW0.10 °C0.70 °C1.03
09:45:001.30 °C1010.90 hPa93.00 %0.30 °C1.03
09:30:001.50 °C1010.80 hPa93.00 %0.50 °C1.03
09:15:001.30 °C1011.00 hPa93.00 %0.30 °C1.03
09:00:001.10 °C1010.90 hPa93.00 %0.10 °C0.52
08:45:001.00 °C1010.80 hPa93.00 %0.00 °C0.52
08:30:001.10 °C1010.70 hPa93.00 %0.10 °C0.52
08:15:000.90 °C1010.60 hPa93.00 %8.64 km/hWSW-1.90 °C-0.10 °C0.52
08:00:001.00 °C1010.60 hPa93.00 %0.00 °C0.52
07:45:001.20 °C1010.70 hPa93.00 %0.20 °C 
07:30:001.30 °C1010.50 hPa93.00 %0.30 °C 
07:15:001.30 °C1010.50 hPa93.00 %6.48 km/hWNW-0.70 °C0.30 °C 
07:00:001.30 °C1010.60 hPa93.00 %0.30 °C 
06:45:001.30 °C1010.50 hPa93.00 %0.30 °C 
06:30:001.30 °C1010.50 hPa93.00 %0.30 °C 
06:15:001.30 °C1010.30 hPa93.00 %0.30 °C 
06:00:001.30 °C1010.30 hPa93.00 %0.30 °C 
05:45:001.30 °C1010.40 hPa93.00 %0.30 °C 
05:30:001.30 °C1010.40 hPa93.00 %0.30 °C 
05:15:001.30 °C1010.20 hPa92.00 %7.92 km/hW-1.20 °C0.10 °C 
05:00:001.20 °C1010.20 hPa92.00 %0.00 °C 
04:45:001.30 °C1010.20 hPa92.00 %0.10 °C 
04:30:001.30 °C1010.20 hPa92.00 %9.00 km/hW-1.50 °C0.10 °C 
04:15:001.30 °C1010.30 hPa92.00 %0.10 °C 
04:00:001.30 °C1010.30 hPa92.00 %9.00 km/hNW-1.50 °C0.10 °C 
03:45:001.30 °C1010.20 hPa92.00 %0.10 °C 
03:30:001.30 °C1010.20 hPa92.00 %0.10 °C 
03:15:001.30 °C1010.30 hPa92.00 %0.10 °C 
03:00:001.30 °C1010.20 hPa92.00 %0.10 °C 
02:45:001.40 °C1010.30 hPa92.00 %0.20 °C 
02:30:001.50 °C1010.40 hPa93.00 %5.04 km/hWNW0.10 °C0.50 °C 
02:15:001.60 °C1010.30 hPa93.00 %0.60 °C 
02:00:001.80 °C1010.30 hPa93.00 %4.68 km/hNW1.80 °C0.80 °C 
01:45:001.90 °C1010.50 hPa93.00 %0.90 °C 
01:30:002.00 °C1010.40 hPa93.00 %1.00 °C 
01:15:002.10 °C1010.30 hPa93.00 %1.10 °C 
01:00:002.00 °C1010.50 hPa93.00 %5.76 km/hNW0.40 °C1.00 °C 
00:45:002.00 °C1010.50 hPa93.00 %1.00 °C 
00:30:001.90 °C1010.20 hPa93.00 %0.90 °C 
00:15:001.90 °C1010.20 hPa93.00 %5.76 km/hW0.30 °C0.90 °C 
00:00:001.90 °C1010.30 hPa93.00 %0.90 °C 

Permanenter Link zu dieser Seite: Wetter im Erzgebirge am 21.03.2016
Performance-Info: Die Erstellung der Seite / Statistik(en) / Tabelle(n) erforderte 5 Datenbankserver-Abfrage(n) und dauerte 101 Millisekunden. (Dieser Messwert ist von der Gesamt-Auslastung des Servers abhängig.)
Erzgebirge - Wetter | Erzgebirge - Wetter (Mobilgeräte) | Komplette Klimadatenbank